KSHV/SHV METAR and TAF weather

Enter ICAO airport designator
Station Type Date Time Source
KSHV METAR 2020/11/27 13:56 UTC NOAA

KSHV 271356Z 11003KT 4SM BR OVC004 17/15 A3002 RMK AO2 LTG DSNT SE SLP164 T01720150


Station Type Date Time Source
KSHV Decoded METAR 2020/11/27 13:56 UTC NOAA

SHREVEPORT REGIONAL AIRPORT, LA, United States (KSHV) 32-27N 93-50W 80M
Nov 27, 2020 - 08:56 AM EST / 2020.11.27 1356 UTC
Wind: from the ESE (110 degrees) at 3 MPH (3 KT):0
Visibility: 4 mile(s):0
Sky conditions: overcast
Weather: mist; Lightning observed
Temperature: 63.0 F (17.2 C)
Dew Point: 59.0 F (15.0 C)
Relative Humidity: 86%
Pressure (altimeter): 30.02 in. Hg (1016 hPa)
ob: KSHV 271356Z 11003KT 4SM BR OVC004 17/15 A3002 RMK AO2 LTG DSNT SE SLP164 T01720150
cycle: 14

Station Type Date Time Source
KSHV TAF 2020/11/27 12:51 UTC NOAA

TAF KSHV 271147Z 2712/2812 11003KT P6SM VCSH OVC007
TEMPO 2712/2715 3SM BR OVC004
FM271500 34004KT P6SM VCTS OVC009CB
FM272100 01007KT P6SM OVC015
FM280200 04007KT P6SM OVC025

Example: see airport list